Time;durP1;ratioP1;P1;durP2;ratioP2;P2;SDS_P1;SDS_P2;PMS_P1;PMS_P2;Temp;Humidity;BMP_temperature;BMP_pressure;BME280_temperature;BME280_humidity;BME280_pressure;Samples;Min_cycle;Max_cycle;Signal;HPM_P1;HPM_P2
2023/03/20 00:00:01;;;;;;;1.63;0.13;;;9.60;88.60;;;;;;5037487;28;20055;-82
2023/03/20 00:02:27;;;;;;;0.00;0.00;;;9.60;89.40;;;;;;5038182;28;20045;-82
2023/03/20 00:04:53;;;;;;;0.00;0.00;;;9.50;90.00;;;;;;5054498;28;20049;-82
2023/03/20 00:07:18;;;;;;;0.00;0.00;;;9.60;90.10;;;;;;5038110;28;20041;-82
2023/03/20 00:09:44;;;;;;;0.00;0.00;;;9.60;90.20;;;;;;5054496;28;20447;-82
2023/03/20 00:12:16;;;;;;;0.00;0.00;;;9.50;87.70;;;;;;5037739;28;20041;-82
2023/03/20 00:14:42;;;;;;;0.00;0.00;;;9.50;86.70;;;;;;5054346;28;20095;-82
2023/03/20 00:17:19;;;;;;;0.45;0.22;;;9.50;88.80;;;;;;5021028;28;20436;-82
2023/03/20 00:19:45;;;;;;;0.00;0.00;;;9.50;85.50;;;;;;5037061;28;20102;-81
2023/03/20 00:22:11;;;;;;;3.75;0.00;;;9.50;86.60;;;;;;5037263;28;20053;-82
2023/03/20 00:24:37;;;;;;;0.90;0.73;;;9.40;87.50;;;;;;5054029;28;20051;-81
2023/03/20 00:27:04;;;;;;;0.03;0.03;;;9.40;90.80;;;;;;5020539;28;20485;-82
2023/03/20 00:29:33;;;;;;;0.00;0.00;;;9.40;88.00;;;;;;5053874;28;20048;-82
2023/03/20 00:31:58;;;;;;;0.00;0.00;;;9.30;91.20;;;;;;5053882;28;20109;-82
2023/03/20 00:34:27;;;;;;;0.10;0.05;;;9.30;91.30;;;;;;5037366;28;20040;-82
2023/03/20 00:36:55;;;;;;;0.52;0.30;;;9.30;90.60;;;;;;5036025;28;20497;-82
2023/03/20 00:39:22;;;;;;;0.00;0.00;;;9.30;90.10;;;;;;5053672;28;20093;-82
2023/03/20 00:42:01;;;;;;;0.13;0.10;;;9.30;91.10;;;;;;5053133;28;20045;-83
2023/03/20 00:44:52;;;;;;;0.30;0.30;;;9.20;90.10;;;;;;5054173;28;20445;-83
2023/03/20 00:47:23;;;;;;;0.00;0.00;;;9.30;90.20;;;;;;5036369;28;20053;-82
2023/03/20 00:49:51;;;;;;;0.00;0.00;;;9.20;89.80;;;;;;5052417;28;20512;-83
2023/03/20 00:52:18;;;;;;;0.10;0.10;;;9.20;87.60;;;;;;5053457;28;20396;-82
2023/03/20 00:54:44;;;;;;;0.00;0.00;;;9.20;91.80;;;;;;5036709;28;20481;-83
2023/03/20 00:57:26;;;;;;;0.00;0.00;;;9.20;93.90;;;;;;5037202;28;20121;-83
2023/03/20 01:00:04;;;;;;;0.15;0.15;;;9.20;94.40;;;;;;5052852;28;20493;-83
2023/03/20 01:02:30;;;;;;;1.52;0.80;;;9.20;93.70;;;;;;5036600;28;20056;-83
2023/03/20 01:04:56;;;;;;;0.13;0.10;;;9.20;94.40;;;;;;5036778;28;20080;-83
2023/03/20 01:07:22;;;;;;;0.00;0.00;;;9.20;94.30;;;;;;5053631;28;20048;-83
2023/03/20 01:09:48;;;;;;;0.00;0.00;;;9.20;94.20;;;;;;5053070;28;20052;-83
2023/03/20 01:12:15;;;;;;;0.20;0.00;;;9.20;94.20;;;;;;5003711;28;20056;-83
2023/03/20 01:14:42;;;;;;;0.32;0.32;;;9.20;93.90;;;;;;5036442;28;20493;-83
2023/03/20 01:17:19;;;;;;;0.90;0.20;;;9.20;93.10;;;;;;5019783;28;20045;-83
2023/03/20 01:19:45;;;;;;;0.40;0.40;;;9.20;90.40;;;;;;5052476;28;20045;-82
2023/03/20 01:22:12;;;;;;;0.13;0.10;;;9.20;89.20;;;;;;5052576;28;20053;-83
2023/03/20 01:24:39;;;;;;;0.00;0.00;;;9.10;91.30;;;;;;5036427;28;20048;-83
2023/03/20 01:27:11;;;;;;;0.13;0.00;;;9.10;91.80;;;;;;5036155;28;20119;-83
2023/03/20 01:29:37;;;;;;;0.00;0.00;;;9.10;92.20;;;;;;5036056;28;20045;-83
2023/03/20 01:32:07;;;;;;;0.00;0.00;;;9.10;92.10;;;;;;5019858;28;20040;-83
2023/03/20 01:34:33;;;;;;;0.00;0.00;;;9.10;92.10;;;;;;5020560;28;20053;-83
2023/03/20 01:36:58;;;;;;;0.30;0.00;;;9.10;91.80;;;;;;5003265;28;20158;-83
2023/03/20 01:39:35;;;;;;;0.22;0.00;;;9.00;91.70;;;;;;5052665;28;20049;-83
2023/03/20 01:42:02;;;;;;;0.00;0.00;;;9.00;92.10;;;;;;5052233;28;20045;-83
2023/03/20 01:44:30;;;;;;;0.00;0.00;;;9.00;91.60;;;;;;5052676;28;20474;-83
2023/03/20 01:46:57;;;;;;;0.13;0.05;;;9.00;91.80;;;;;;5052135;28;20053;-83
2023/03/20 01:49:23;;;;;;;0.00;0.00;;;9.00;91.50;;;;;;5018903;28;20053;-83
2023/03/20 01:51:50;;;;;;;0.00;0.00;;;9.00;91.60;;;;;;5052655;28;20056;-82
2023/03/20 01:54:18;;;;;;;0.00;0.00;;;8.90;91.50;;;;;;5035964;28;20048;-83
2023/03/20 01:56:58;;;;;;;0.00;0.00;;;8.90;91.20;;;;;;5052303;28;20114;-83
2023/03/20 01:59:34;;;;;;;0.20;0.20;;;8.90;91.40;;;;;;5052331;28;20052;-83
2023/03/20 02:02:00;;;;;;;0.10;0.10;;;8.90;91.60;;;;;;5052359;28;20049;-83
2023/03/20 02:04:31;;;;;;;0.00;0.00;;;8.90;91.30;;;;;;5052352;28;20058;-83
2023/03/20 02:06:57;;;;;;;0.00;0.00;;;8.90;91.40;;;;;;5052531;28;20049;-82
2023/03/20 02:09:23;;;;;;;0.00;0.00;;;8.90;90.80;;;;;;5052115;28;20075;-83
2023/03/20 02:11:49;;;;;;;2.22;0.63;;;8.90;90.30;;;;;;5019419;28;20084;-82
2023/03/20 02:14:15;;;;;;;0.22;0.22;;;8.90;90.00;;;;;;5035724;28;20084;-83
2023/03/20 02:16:41;;;;;;;0.00;0.00;;;8.90;90.20;;;;;;5052405;28;20103;-83
2023/03/20 02:19:20;;;;;;;0.00;0.00;;;8.90;90.20;;;;;;5035134;28;20136;-83
2023/03/20 02:22:23;;;;;;;1.20;0.52;;;8.90;89.40;;;;;;5035432;28;20087;-83
2023/03/20 02:25:14;;;;;;;0.00;0.00;;;8.80;89.60;;;;;;5052328;28;20048;-83
2023/03/20 02:28:04;;;;;;;0.00;0.00;;;8.80;88.30;;;;;;5052502;28;20091;-83
2023/03/20 02:31:09;;;;;;;0.00;0.00;;;8.80;88.00;;;;;;5052463;28;20072;-82
2023/03/20 02:34:06;;;;;;;0.00;0.00;;;8.80;87.70;;;;;;5034672;28;20140;-83
2023/03/20 02:36:50;;;;;;;0.00;0.00;;;8.80;88.40;;;;;;5052423;28;20048;-82
2023/03/20 02:39:40;;;;;;;0.10;0.10;;;8.80;87.60;;;;;;5052086;28;20045;-82
2023/03/20 02:42:36;;;;;;;0.00;0.00;;;8.80;89.10;;;;;;5051652;28;20056;-83
2023/03/20 02:45:25;;;;;;;0.20;0.20;;;8.80;89.40;;;;;;5052432;28;20049;-82
2023/03/20 02:48:03;;;;;;;0.00;0.00;;;8.80;90.10;;;;;;5051540;28;20056;-83
2023/03/20 02:50:41;;;;;;;0.50;0.10;;;8.70;89.40;;;;;;5051276;28;20048;-83
2023/03/20 02:53:17;;;;;;;5.95;1.00;;;8.70;88.20;;;;;;5051798;28;20041;-83
2023/03/20 02:56:13;;;;;;;1.02;0.47;;;8.70;89.60;;;;;;5052040;28;20048;-83
2023/03/20 02:58:44;;;;;;;0.20;0.20;;;8.70;90.00;;;;;;5052048;28;20045;-83
2023/03/20 03:01:21;;;;;;;0.00;0.00;;;8.70;90.00;;;;;;5053415;28;20382;-83
2023/03/20 03:03:53;;;;;;;2.00;0.13;;;8.70;90.80;;;;;;5055742;28;20133;-82
2023/03/20 03:06:31;;;;;;;0.70;0.70;;;8.70;90.30;;;;;;5038899;28;20496;-83
2023/03/20 03:09:06;;;;;;;0.10;0.10;;;8.70;90.90;;;;;;5055365;28;20049;-83
2023/03/20 03:11:34;;;;;;;;;;;8.70;90.00;;;;;;5055753;28;20061;-83
2023/03/20 03:14:02;;;;;;;0.10;0.10;;;8.70;89.30;;;;;;5055140;28;19971;-83
2023/03/20 03:16:38;;;;;;;0.13;0.00;;;8.80;91.10;;;;;;5055729;28;20521;-83
2023/03/20 03:19:13;;;;;;;0.73;0.15;;;8.70;90.70;;;;;;5054927;28;20071;-83
2023/03/20 03:21:39;;;;;;;;;;;8.70;90.70;;;;;;5038749;28;20094;-83
2023/03/20 03:24:06;;;;;;;1.85;0.25;;;8.70;91.20;;;;;;5055014;28;19921;-83
2023/03/20 03:26:38;;;;;;;0.10;0.00;;;8.70;91.50;;;;;;5037981;28;20547;-83
2023/03/20 03:29:14;;;;;;;0.00;0.00;;;8.70;90.90;;;;;;5055080;28;20037;-83
2023/03/20 03:31:42;;;;;;;0.00;0.00;;;8.70;91.30;;;;;;5055143;28;20053;-83
2023/03/20 03:34:12;;;;;;;1.88;1.10;;;8.70;91.00;;;;;;5022186;28;20045;-83
2023/03/20 03:37:03;;;;;;;0.13;0.13;;;8.70;90.80;;;;;;5054821;28;20041;-83
2023/03/20 03:39:47;;;;;;;0.03;0.00;;;8.70;90.60;;;;;;5038473;28;20041;-83
2023/03/20 03:42:32;;;;;;;0.00;0.00;;;8.70;91.10;;;;;;5054845;28;20086;-83
2023/03/20 03:45:03;;;;;;;0.20;0.20;;;8.70;90.80;;;;;;5054987;28;20493;-83
2023/03/20 03:47:35;;;;;;;1.10;0.38;;;8.70;90.50;;;;;;5054236;28;20509;-83
2023/03/20 03:50:12;;;;;;;2.50;0.30;;;8.60;90.20;;;;;;5053961;28;20049;-83
2023/03/20 03:52:40;;;;;;;0.10;0.10;;;8.60;90.20;;;;;;5054981;28;20083;-83
2023/03/20 03:55:10;;;;;;;0.13;0.13;;;8.60;90.20;;;;;;5038047;28;20561;-83
2023/03/20 03:57:48;;;;;;;2.28;0.38;;;8.60;90.10;;;;;;5054456;28;20049;-83
2023/03/20 04:00:18;;;;;;;0.00;0.00;;;8.60;89.60;;;;;;5054536;28;20428;-83
2023/03/20 04:02:48;;;;;;;0.52;0.13;;;8.60;89.50;;;;;;5054622;28;20044;-83
2023/03/20 04:05:16;;;;;;;0.00;0.00;;;8.60;88.10;;;;;;5054298;28;20059;-83
2023/03/20 04:07:47;;;;;;;0.00;0.00;;;8.60;87.70;;;;;;5037952;28;20084;-83
2023/03/20 04:10:13;;;;;;;0.75;0.00;;;8.60;85.90;;;;;;5054236;28;20037;-83
2023/03/20 04:12:41;;;;;;;1.55;0.45;;;8.60;84.70;;;;;;5054170;28;20053;-83
2023/03/20 04:15:08;;;;;;;0.10;0.10;;;8.60;83.80;;;;;;5053923;28;20124;-83
2023/03/20 04:17:34;;;;;;;0.40;0.40;;;8.60;84.40;;;;;;5054146;28;20502;-83
2023/03/20 04:20:00;;;;;;;0.00;0.00;;;8.60;83.40;;;;;;5036706;28;20053;-83
2023/03/20 04:22:26;;;;;;;0.00;0.00;;;8.60;83.30;;;;;;5054178;28;20052;-83
2023/03/20 04:24:51;;;;;;;0.80;0.40;;;8.60;83.10;;;;;;5037411;28;20045;-83
2023/03/20 04:27:18;;;;;;;0.00;0.00;;;8.50;82.40;;;;;;5054003;28;20142;-83
2023/03/20 04:29:43;;;;;;;0.00;0.00;;;8.50;82.20;;;;;;5070236;28;20055;-83
2023/03/20 04:32:09;;;;;;;0.00;0.00;;;8.50;81.60;;;;;;5037621;28;20409;-83
2023/03/20 04:34:35;;;;;;;0.00;0.00;;;8.50;80.00;;;;;;5053791;28;20048;-83
2023/03/20 04:37:01;;;;;;;0.15;0.15;;;8.50;79.70;;;;;;5037234;28;20053;-83
2023/03/20 04:39:27;;;;;;;1.15;0.00;;;8.50;79.40;;;;;;5036904;28;20048;-83
2023/03/20 04:41:54;;;;;;;1.50;0.50;;;8.50;79.40;;;;;;5037090;28;20087;-83
2023/03/20 04:44:20;;;;;;;0.00;0.00;;;8.50;79.20;;;;;;5037132;28;20385;-83
2023/03/20 04:46:45;;;;;;;0.45;0.43;;;8.50;78.60;;;;;;5036792;28;20147;-83
2023/03/20 04:49:11;;;;;;;0.00;0.00;;;8.50;79.20;;;;;;5052900;28;20045;-83
2023/03/20 04:51:36;;;;;;;0.30;0.30;;;8.40;79.60;;;;;;5053411;28;20123;-83
2023/03/20 04:54:02;;;;;;;3.15;0.47;;;8.40;79.00;;;;;;5019961;28;20049;-83
2023/03/20 04:56:28;;;;;;;0.60;0.30;;;8.40;79.20;;;;;;5053100;28;20040;-83
2023/03/20 04:58:54;;;;;;;0.25;0.10;;;8.40;78.00;;;;;;5036868;28;20048;-83
2023/03/20 05:01:19;;;;;;;1.27;0.30;;;8.40;77.70;;;;;;5036531;28;20397;-83
2023/03/20 05:03:45;;;;;;;0.00;0.00;;;8.40;78.50;;;;;;5020124;28;20044;-83
2023/03/20 05:06:11;;;;;;;0.00;0.00;;;8.40;77.70;;;;;;5036516;28;20049;-83
2023/03/20 05:08:37;;;;;;;0.25;0.25;;;8.40;79.50;;;;;;5052929;28;20098;-83
2023/03/20 05:11:03;;;;;;;0.28;0.28;;;8.40;79.00;;;;;;5020061;28;20127;-83
2023/03/20 05:13:28;;;;;;;0.00;0.00;;;8.30;77.80;;;;;;5036561;28;20048;-83
2023/03/20 05:15:55;;;;;;;0.00;0.00;;;8.30;78.50;;;;;;5052824;28;20131;-83
2023/03/20 05:18:20;;;;;;;0.28;0.28;;;8.30;77.40;;;;;;5035910;28;20052;-83
2023/03/20 05:20:48;;;;;;;0.38;0.20;;;8.30;76.50;;;;;;5068289;28;20068;-83
2023/03/20 05:23:13;;;;;;;0.28;0.28;;;8.30;78.00;;;;;;5035620;28;20124;-83
2023/03/20 05:25:39;;;;;;;0.10;0.10;;;8.30;76.50;;;;;;5036692;28;20127;-83
2023/03/20 05:28:05;;;;;;;0.03;0.00;;;8.30;75.40;;;;;;5052882;28;20397;-83
2023/03/20 05:30:31;;;;;;;0.88;0.10;;;8.30;74.50;;;;;;5052667;28;20056;-83
2023/03/20 05:32:57;;;;;;;0.00;0.00;;;8.30;74.50;;;;;;5052393;28;20049;-83
2023/03/20 05:35:22;;;;;;;0.13;0.13;;;8.30;75.10;;;;;;5019418;28;20048;-83
2023/03/20 05:37:48;;;;;;;0.00;0.00;;;8.20;74.80;;;;;;5052299;28;20049;-83
2023/03/20 05:40:15;;;;;;;3.05;1.15;;;8.20;73.50;;;;;;5052516;28;20127;-83
2023/03/20 05:42:41;;;;;;;0.00;0.00;;;8.20;73.60;;;;;;5019455;28;20059;-83
2023/03/20 05:45:08;;;;;;;1.17;0.17;;;8.20;71.50;;;;;;5035971;28;20118;-83
2023/03/20 05:47:34;;;;;;;0.10;0.00;;;8.20;71.90;;;;;;5051955;28;20056;-83
2023/03/20 05:50:00;;;;;;;0.30;0.30;;;8.20;72.30;;;;;;5051817;28;20056;-83
2023/03/20 05:52:26;;;;;;;0.10;0.10;;;8.20;70.00;;;;;;5052371;28;20041;-83
2023/03/20 05:54:52;;;;;;;0.35;0.15;;;8.20;70.30;;;;;;5048263;28;20045;-84
2023/03/20 05:57:18;;;;;;;0.10;0.10;;;8.20;69.80;;;;;;5016210;28;20144;-83
2023/03/20 05:59:44;;;;;;;0.10;0.10;;;8.20;68.60;;;;;;5016380;28;20131;-83
2023/03/20 06:02:10;;;;;;;0.10;0.10;;;8.20;67.50;;;;;;5015832;28;20045;-83
2023/03/20 06:04:36;;;;;;;0.93;0.45;;;8.20;67.30;;;;;;5032435;28;20127;-83
2023/03/20 06:07:03;;;;;;;0.22;0.10;;;8.20;65.60;;;;;;5016021;28;20084;-83
2023/03/20 06:09:28;;;;;;;1.23;0.20;;;8.20;64.80;;;;;;5033088;28;20061;-83
2023/03/20 06:11:55;;;;;;;0.38;0.28;;;8.20;60.70;;;;;;5016019;28;20045;-83
2023/03/20 06:14:20;;;;;;;0.00;0.00;;;8.20;59.00;;;;;;4999797;28;20096;-83
2023/03/20 06:16:46;;;;;;;0.90;0.73;;;8.20;56.10;;;;;;4999423;28;20447;-83
2023/03/20 06:19:12;;;;;;;1.27;0.40;;;8.20;54.90;;;;;;5015395;28;20045;-83
2023/03/20 06:21:38;;;;;;;0.20;0.08;;;8.30;53.70;;;;;;5031967;28;20037;-83
2023/03/20 06:24:04;;;;;;;1.25;0.45;;;8.30;52.80;;;;;;4983770;28;20132;-83
2023/03/20 06:26:30;;;;;;;0.03;0.03;;;8.30;53.50;;;;;;5016184;28;20052;-83
2023/03/20 06:28:56;;;;;;;0.28;0.10;;;8.30;49.40;;;;;;5015928;28;20409;-83
2023/03/20 06:31:22;;;;;;;0.10;0.00;;;8.30;50.70;;;;;;5016124;28;20056;-83
2023/03/20 06:33:48;;;;;;;0.28;0.00;;;8.30;49.00;;;;;;4983342;28;20054;-83
2023/03/20 06:36:13;;;;;;;0.15;0.13;;;8.30;48.40;;;;;;5017838;28;20041;-83
2023/03/20 06:38:39;;;;;;;0.10;0.10;;;8.40;45.40;;;;;;5019673;28;20046;-83
2023/03/20 06:41:05;;;;;;;0.00;0.00;;;8.40;45.00;;;;;;5035837;28;20128;-84
2023/03/20 06:43:31;;;;;;;0.00;0.00;;;8.40;43.50;;;;;;5019636;28;20067;-83
2023/03/20 06:45:57;;;;;;;0.00;0.00;;;8.40;42.50;;;;;;5035598;28;20041;-83
2023/03/20 06:48:23;;;;;;;0.00;0.00;;;8.50;39.00;;;;;;5035408;28;20128;-84
2023/03/20 06:50:50;;;;;;;0.10;0.10;;;8.50;35.80;;;;;;5036099;28;20041;-83
2023/03/20 06:53:16;;;;;;;0.00;0.00;;;8.60;35.00;;;;;;5019327;28;20135;-83
2023/03/20 06:55:45;;;;;;;0.00;0.00;;;8.60;31.00;;;;;;5019344;28;20052;-83
2023/03/20 06:58:11;;;;;;;0.03;0.00;;;8.60;29.50;;;;;;5035723;28;20486;-83
2023/03/20 07:00:37;;;;;;;0.10;0.10;;;8.60;26.90;;;;;;5035620;28;20038;-83
2023/03/20 07:03:03;;;;;;;0.00;0.00;;;8.60;26.30;;;;;;5035570;28;20053;-83
2023/03/20 07:05:29;;;;;;;0.00;0.00;;;8.70;24.50;;;;;;5019103;28;20045;-83
2023/03/20 07:07:54;;;;;;;0.00;0.00;;;8.70;24.20;;;;;;5035566;28;20551;-83
2023/03/20 07:10:20;;;;;;;0.60;0.60;;;8.70;24.50;;;;;;5018770;28;20053;-89
2023/03/20 07:12:46;;;;;;;0.57;0.00;;;8.70;22.20;;;;;;4986555;28;20043;-84
2023/03/20 07:15:11;;;;;;;0.30;0.20;;;8.70;24.20;;;;;;5018888;28;20502;-83
2023/03/20 07:17:37;;;;;;;0.10;0.00;;;8.70;21.70;;;;;;5018825;28;20068;-83
2023/03/20 07:20:03;;;;;;;1.65;0.52;;;8.70;22.70;;;;;;5018071;28;20049;-84
2023/03/20 07:22:33;;;;;;;0.57;0.57;;;8.70;20.10;;;;;;5035129;28;20437;-84
2023/03/20 07:24:58;;;;;;;0.03;0.03;;;8.70;21.10;;;;;;5035363;28;20445;-83
2023/03/20 07:27:25;;;;;;;0.00;0.00;;;8.80;18.30;;;;;;5018748;28;20064;-82
2023/03/20 07:29:51;;;;;;;0.00;0.00;;;8.80;21.50;;;;;;5018504;28;20237;-89
2023/03/20 07:32:17;;;;;;;0.25;0.20;;;8.80;15.70;;;;;;5018616;28;20048;-84
2023/03/20 07:34:43;;;;;;;0.10;0.10;;;8.90;5.30;;;;;;5034903;28;20049;-87
2023/03/20 07:37:09;;;;;;;0.10;0.10;;;8.90;10.20;;;;;;5018574;28;20080;-82
2023/03/20 07:39:35;;;;;;;0.00;0.00;;;8.90;7.60;;;;;;5035543;28;20068;-83
2023/03/20 07:42:00;;;;;;;0.22;0.03;;;8.90;10.80;;;;;;5034568;28;20522;-83
2023/03/20 07:44:26;;;;;;;0.00;0.00;;;8.90;6.40;;;;;;5018344;28;20084;-83
2023/03/20 07:46:52;;;;;;;0.20;0.20;;;8.90;4.30;;;;;;5017631;28;20132;-83
2023/03/20 07:49:18;;;;;;;0.85;0.00;;;8.90;4.30;;;;;;5017468;28;20536;-83
2023/03/20 07:51:45;;;;;;;0.28;0.28;;;8.90;5.40;;;;;;5034641;28;20390;-83
2023/03/20 07:54:11;;;;;;;1.23;0.30;;;8.90;7.00;;;;;;5001829;28;20140;-83
2023/03/20 07:56:36;;;;;;;0.77;0.40;;;8.90;1.70;;;;;;5018198;28;20057;-83
2023/03/20 07:59:02;;;;;;;0.47;0.00;;;9.00;4.60;;;;;;5017991;28;20049;-83
2023/03/20 08:01:28;;;;;;;0.15;0.10;;;9.00;7.30;;;;;;5017886;28;20128;-83
2023/03/20 08:03:54;;;;;;;0.13;0.13;;;9.10;3.60;;;;;;5018046;28;20049;-85
2023/03/20 08:06:20;;;;;;;0.52;0.52;;;9.20;1.00;;;;;;5039442;28;20095;-85
2023/03/20 08:08:45;;;;;;;0.10;0.10;;;9.20;1.00;;;;;;5054383;28;20205;-83
2023/03/20 08:11:12;;;;;;;0.00;0.00;;;9.20;1.00;;;;;;5054057;28;20052;-83
2023/03/20 08:13:37;;;;;;;2.05;0.15;;;9.20;1.00;;;;;;5054382;28;20080;-83
2023/03/20 08:16:03;;;;;;;0.20;0.10;;;9.30;1.00;;;;;;5054411;28;20162;-84
2023/03/20 08:18:29;;;;;;;0.03;0.03;;;9.30;1.00;;;;;;5004829;28;20048;-87
2023/03/20 08:20:55;;;;;;;0.15;0.10;;;9.30;1.00;;;;;;5037029;28;20380;-83
2023/03/20 08:23:20;;;;;;;0.00;0.00;;;9.30;1.00;;;;;;5037643;28;20059;-83
2023/03/20 08:25:51;;;;;;;1.35;0.35;;;9.40;1.00;;;;;;5037351;28;20045;-84
2023/03/20 08:28:17;;;;;;;0.00;0.00;;;9.40;1.00;;;;;;5037349;28;20555;-85
2023/03/20 08:30:42;;;;;;;1.17;0.63;;;9.40;1.00;;;;;;5053742;28;20140;-85
2023/03/20 08:33:08;;;;;;;2.65;0.43;;;9.50;1.00;;;;;;5053680;28;20124;-83
2023/03/20 08:35:34;;;;;;;0.45;0.30;;;9.50;1.00;;;;;;5054076;28;20052;-84
2023/03/20 08:38:00;;;;;;;3.00;1.23;;;9.60;1.00;;;;;;5037332;28;20044;-82
2023/03/20 08:40:26;;;;;;;0.10;0.10;;;9.60;1.00;;;;;;5037185;28;20049;-84
2023/03/20 08:42:52;;;;;;;0.30;0.10;;;9.70;1.00;;;;;;5053784;28;20079;-84
2023/03/20 08:45:17;;;;;;;0.43;0.43;;;9.80;1.00;;;;;;5036798;28;20044;-83
2023/03/20 08:47:47;;;;;;;0.55;0.55;;;9.90;1.00;;;;;;5053090;28;20057;-85
2023/03/20 08:50:13;;;;;;;0.00;0.00;;;10.00;1.00;;;;;;5053373;28;20049;-82
2023/03/20 08:52:42;;;;;;;1.30;1.05;;;10.10;1.00;;;;;;5053654;28;20047;-82
2023/03/20 08:55:09;;;;;;;0.20;0.20;;;10.10;1.00;;;;;;5053522;28;20056;-82
2023/03/20 08:57:37;;;;;;;2.45;0.10;;;10.20;1.00;;;;;;5052906;28;20045;-82
2023/03/20 09:00:05;;;;;;;0.00;0.00;;;10.30;1.00;;;;;;5036603;28;20127;-81
2023/03/20 09:02:30;;;;;;;0.10;0.10;;;10.40;1.00;;;;;;5053507;28;20404;-85
2023/03/20 09:04:56;;;;;;;3.47;0.25;;;10.60;1.00;;;;;;5053208;28;20049;-87
2023/03/20 09:07:22;;;;;;;0.03;0.03;;;10.70;1.00;;;;;;5020289;28;20041;-83
2023/03/20 09:09:48;;;;;;;0.52;0.52;;;10.80;1.00;;;;;;5036583;28;20041;-82
2023/03/20 09:12:14;;;;;;;0.15;0.15;;;10.80;1.00;;;;;;5053025;28;20053;-82
2023/03/20 09:14:40;;;;;;;0.00;0.00;;;10.90;1.00;;;;;;5036652;28;20095;-82
2023/03/20 09:17:06;;;;;;;1.65;0.57;;;11.10;1.00;;;;;;5069277;28;20049;-82
2023/03/20 09:19:33;;;;;;;0.00;0.00;;;11.20;99.90;;;;;;5052495;28;20130;-82
2023/03/20 09:21:59;;;;;;;0.32;0.17;;;11.40;99.90;;;;;;5035990;28;20033;-82
2023/03/20 09:24:25;;;;;;;0.10;0.10;;;11.60;99.90;;;;;;5036422;28;20136;-83
2023/03/20 09:26:51;;;;;;;0.03;0.00;;;11.60;99.90;;;;;;5019668;28;20084;-82
2023/03/20 09:29:17;;;;;;;9.65;0.85;;;11.70;99.90;;;;;;5052619;28;20053;-82
2023/03/20 09:31:43;;;;;;;1.80;0.70;;;11.80;1.00;;;;;;5036213;28;20045;-82
2023/03/20 09:34:09;;;;;;;0.10;0.10;;;11.80;99.90;;;;;;5052756;28;20044;-82
2023/03/20 09:36:34;;;;;;;0.00;0.00;;;11.90;99.90;;;;;;5036303;28;20061;-82
2023/03/20 09:39:00;;;;;;;0.17;0.13;;;12.00;99.90;;;;;;5024281;28;20052;-82
2023/03/20 09:41:27;;;;;;;1.27;0.35;;;12.10;49.40;;;;;;5032759;28;20050;-82
2023/03/20 09:44:14;;;;;;;0.65;0.65;;;12.00;99.90;;;;;;5016415;28;20482;-82
2023/03/20 09:47:07;;;;;;;0.10;0.10;;;12.00;99.90;;;;;;5033039;28;20450;-82
2023/03/20 09:49:45;;;;;;;0.30;0.22;;;12.00;99.90;;;;;;5032104;28;20486;-82
2023/03/20 09:52:29;;;;;;;0.88;0.32;;;12.20;99.90;;;;;;5033446;28;20107;-83
2023/03/20 09:55:06;;;;;;;0.00;0.00;;;12.30;1.00;;;;;;5032670;28;20073;-83
2023/03/20 09:57:41;;;;;;;0.43;0.10;;;12.40;1.00;;;;;;5016095;28;20129;-82
2023/03/20 10:00:28;;;;;;;0.00;0.00;;;12.50;99.90;;;;;;5040892;28;20559;-83
2023/03/20 10:03:05;;;;;;;1.17;0.38;;;12.60;99.90;;;;;;5035668;28;20115;-83
2023/03/20 10:05:51;;;;;;;2.08;0.10;;;12.60;99.90;;;;;;5035925;28;20049;-82
2023/03/20 10:08:20;;;;;;;0.20;0.10;;;12.70;99.90;;;;;;5019293;28;20378;-82
2023/03/20 10:11:11;;;;;;;0.00;0.00;;;12.80;1.00;;;;;;5038728;28;20100;-82
2023/03/20 10:13:37;;;;;;;0.52;0.20;;;12.90;99.90;;;;;;5005848;28;20087;-82
2023/03/20 10:16:15;;;;;;;0.00;0.00;;;13.00;1.00;;;;;;5003569;28;20537;-82
2023/03/20 10:18:50;;;;;;;0.00;0.00;;;13.00;99.90;;;;;;5020020;28;20069;-81
2023/03/20 10:21:22;;;;;;;;;;;13.00;1.00;;;;;;5019479;28;20095;-82
2023/03/20 10:24:02;;;;;;;0.10;0.10;;;13.10;41.00;;;;;;5036097;28;20436;-82
2023/03/20 10:26:32;;;;;;;0.20;0.10;;;13.10;99.90;;;;;;5003207;28;20049;-82
2023/03/20 10:28:59;;;;;;;0.00;0.00;;;13.00;99.90;;;;;;5003400;28;20045;-82
2023/03/20 10:32:03;;;;;;;0.75;0.13;;;13.00;99.90;;;;;;5003460;28;20088;-82
2023/03/20 10:34:50;;;;;;;0.00;0.00;;;12.80;99.90;;;;;;5019739;28;20049;-82
2023/03/20 10:37:30;;;;;;;0.00;0.00;;;12.70;99.90;;;;;;5019329;28;20057;-82
2023/03/20 10:40:03;;;;;;;0.00;0.00;;;12.60;1.00;;;;;;5003229;28;20501;-81
2023/03/20 10:42:42;;;;;;;0.10;0.10;;;12.50;99.90;;;;;;5019203;28;20092;-82
2023/03/20 10:45:17;;;;;;;0.20;0.10;;;12.20;89.60;;;;;;5019723;28;20080;-82
2023/03/20 10:47:47;;;;;;;0.22;0.00;;;12.10;99.90;;;;;;5019081;28;20057;-81
2023/03/20 10:50:18;;;;;;;0.10;0.10;;;12.00;7.40;;;;;;5035195;28;20144;-82
2023/03/20 10:52:47;;;;;;;0.47;0.38;;;12.00;99.90;;;;;;5018961;28;20401;-81
2023/03/20 10:55:39;;;;;;;0.93;0.38;;;12.10;99.90;;;;;;5019282;28;20132;-82
2023/03/20 10:58:22;;;;;;;0.10;0.03;;;12.00;99.90;;;;;;5018084;28;20508;-82
2023/03/20 11:00:48;;;;;;;0.00;0.00;;;11.90;1.00;;;;;;5036441;28;20041;-82
2023/03/20 11:03:22;;;;;;;0.10;0.10;;;11.80;99.90;;;;;;5002590;28;20045;-82
2023/03/20 11:05:58;;;;;;;0.33;0.00;;;11.70;99.90;;;;;;5019157;28;20496;-82
2023/03/20 11:08:29;;;;;;;2.22;0.57;;;11.60;99.90;;;;;;5002749;28;20049;-82
2023/03/20 11:11:00;;;;;;;0.93;0.38;;;11.50;99.90;;;;;;5003612;28;20064;-81
2023/03/20 11:13:31;;;;;;;1.65;0.55;;;11.40;99.90;;;;;;5018933;28;20581;-82
2023/03/20 11:16:26;;;;;;;0.10;0.08;;;11.30;99.90;;;;;;5002824;28;20138;-81
2023/03/20 11:18:53;;;;;;;0.05;0.03;;;11.10;1.00;;;;;;5018855;28;20053;-82
2023/03/20 11:21:23;;;;;;;0.10;0.10;;;11.10;30.60;;;;;;4985038;28;20041;-82
2023/03/20 11:23:49;;;;;;;1.98;0.55;;;11.10;15.00;;;;;;5002233;28;20059;-82
2023/03/20 11:26:40;;;;;;;0.00;0.00;;;11.10;1.00;;;;;;5018531;28;20080;-83
2023/03/20 11:29:10;;;;;;;0.10;0.10;;;11.10;99.90;;;;;;5018223;28;20053;-82
2023/03/20 11:31:39;;;;;;;0.00;0.00;;;11.20;45.70;;;;;;5018711;28;20099;-82
2023/03/20 11:34:14;;;;;;;0.20;0.20;;;11.10;99.90;;;;;;5018637;28;20045;-82
2023/03/20 11:36:52;;;;;;;;;;;11.10;1.00;;;;;;5018685;28;20052;-82
2023/03/20 11:39:25;;;;;;;3.03;0.05;;;11.10;19.20;;;;;;5035217;28;19921;-82
2023/03/20 11:41:53;;;;;;;0.30;0.30;;;11.00;1.00;;;;;;5001759;28;20537;-83
2023/03/20 11:44:29;;;;;;;0.00;0.00;;;11.00;1.00;;;;;;5001818;28;20478;-83
2023/03/20 11:47:13;;;;;;;0.00;0.00;;;11.00;1.00;;;;;;5001280;28;20053;-83
2023/03/20 11:49:55;;;;;;;0.95;0.85;;;11.00;1.00;;;;;;5017835;28;20054;-83
2023/03/20 11:52:24;;;;;;;0.15;0.15;;;11.10;1.00;;;;;;5001662;28;20052;-82
2023/03/20 11:54:54;;;;;;;0.20;0.15;;;11.10;99.90;;;;;;5018087;28;20128;-81
2023/03/20 11:57:28;;;;;;;0.00;0.00;;;11.20;99.90;;;;;;5034580;28;20079;-87
2023/03/20 11:59:55;;;;;;;;;;;11.20;1.00;;;;;;5002325;28;20041;-87
2023/03/20 12:02:23;;;;;;;0.08;0.08;;;11.20;1.00;;;;;;5034282;28;19990;-87
2023/03/20 12:04:49;;;;;;;0.20;0.20;;;11.20;99.90;;;;;;5018205;28;20053;-87
2023/03/20 12:07:31;;;;;;;0.38;0.08;;;11.20;99.90;;;;;;5001569;28;20486;-85
2023/03/20 12:10:02;;;;;;;0.00;0.00;;;11.10;99.90;;;;;;5017991;28;20052;-83
2023/03/20 12:12:39;;;;;;;0.00;0.00;;;11.10;99.90;;;;;;5001649;28;20041;-82
2023/03/20 12:15:11;;;;;;;0.00;0.00;;;11.00;99.90;;;;;;5001539;28;20049;-83
2023/03/20 12:17:52;;;;;;;0.05;0.05;;;11.10;1.00;;;;;;5017673;28;20120;-81
2023/03/20 12:20:35;;;;;;;0.32;0.30;;;11.00;1.00;;;;;;5017037;28;20056;-81
2023/03/20 12:23:33;;;;;;;0.00;0.00;;;11.10;99.90;;;;;;5018262;28;20438;-81
2023/03/20 12:26:06;;;;;;;0.00;0.00;;;11.10;1.00;;;;;;5016839;28;20099;-81
2023/03/20 12:28:50;;;;;;;0.22;0.20;;;11.10;1.00;;;;;;5001015;28;20088;-82
2023/03/20 12:31:25;;;;;;;0.03;0.03;;;11.20;99.90;;;;;;5035181;28;20037;-81
2023/03/20 12:34:15;;;;;;;0.20;0.13;;;11.20;99.90;;;;;;5016403;28;20061;-81
2023/03/20 12:36:44;;;;;;;5.57;1.13;;;11.20;61.60;;;;;;5017420;28;20053;-82
2023/03/20 12:39:18;;;;;;;0.00;0.00;;;11.30;89.70;;;;;;5017332;28;20057;-82
2023/03/20 12:42:21;;;;;;;0.93;0.47;;;11.30;1.00;;;;;;5033853;28;20458;-82
2023/03/20 12:44:59;;;;;;;0.05;0.05;;;11.30;99.90;;;;;;5017137;28;20140;-82
2023/03/20 12:47:42;;;;;;;0.68;0.00;;;11.30;1.00;;;;;;4997246;28;20084;-82
2023/03/20 12:50:53;;;;;;;0.15;0.15;;;11.20;1.00;;;;;;4997155;28;20058;-82
2023/03/20 12:53:51;;;;;;;1.45;0.38;;;11.20;99.90;;;;;;4992940;28;20083;-81
2023/03/20 12:56:39;;;;;;;1.98;0.57;;;11.20;99.90;;;;;;5013483;28;20042;-82
2023/03/20 12:59:21;;;;;;;0.32;0.32;;;11.20;99.90;;;;;;5013776;28;20049;-81
2023/03/20 13:02:01;;;;;;;0.00;0.00;;;11.20;99.90;;;;;;4997240;28;20045;-82
2023/03/20 13:04:51;;;;;;;0.28;0.28;;;11.20;99.90;;;;;;4997522;28;20108;-82
2023/03/20 13:07:24;;;;;;;0.00;0.00;;;11.20;16.10;;;;;;5013749;28;20060;-82
2023/03/20 13:10:07;;;;;;;0.00;0.00;;;11.20;99.90;;;;;;5030224;28;20132;-82
2023/03/20 13:12:46;;;;;;;0.60;0.25;;;11.10;99.90;;;;;;5013319;28;20056;-82
2023/03/20 13:15:44;;;;;;;0.10;0.10;;;11.00;1.00;;;;;;5013287;28;20045;-82
2023/03/20 13:18:20;;;;;;;0.10;0.08;;;10.80;48.30;;;;;;4997108;28;20136;-81